Hovedside
METAR-TAF:

METAR-TAF

Lufthavner :

Šiauliai, Litauen

breddegrad: 55-53-38N, lengdegrad: 023-23-42E, høyde over havet: 135 m

Gjeldene værobservasjon

Denne rapporten ble laget for 38 minutter siden, klokken 09:20 UTC
Vind 8 kt fra Sørøst
Temperatur 14°C
Luftfuktighet 88%
Trykk 1015 hPa
Sikt: 6000 m

METAR: EYSA 200920Z 14008KT 6000 NSC 14/12 Q1015 WHT BECMG 8000 BLU

Tid: 12:58 (09:58 UTC)

Varsel

Denne rapporten ble laget for 1 time og 31 minutter siden, klokken 08:27 UTC
Varsel gyldig fra 20. klokken 09 UTC til 20. klokken 18 UTC
Vind 8 kt fra Sør-sørøst
Sikt: 4000 m
dis
Blir
fra 20. klokken 10 UTC til 20. klokken 11 UTC
Sikt: 9000 m
Midlertidig
fra 20. klokken 16 UTC til 20. klokken 18 UTC
Sikt: 3000 m
Grunne tåke

TAF: EYSA 200827Z 2009/2018 15008KT 4000 BR NSC BECMG 2010/2011 9000 TEMPO 2016/2018 3000 MIFG

Værobservasjoner og værvarsel for over 4000 flyplasser (METAR- og TAF-rapporter).

Tilgjengelige stasjoner er representert av de røde og gule prikkene på kartet.

Hold musepekeren over prikken for å se navnet på stasjonen.

Klikk så for å se værobservasjoner og -varsler.

For å forandre kartet kan du klikke på den grønne knappen med svart kryss for å zoome inn, på den grønne knappen med strek for å zoome ut, eller på de grønne pilene for å se tilstøtende kart.


METAR-TAF: